CheckWX is a tool to help pilots better visualize weather data.  It is not intended as a substitute for an official pre-flight weather briefing.

05:08:38 UTC

FAEO METAR
Ermelo Airport
Ermelo, South Africa
Current

20 hours ago

FAEO 230847Z 31013KT CAVOK 14/M03 Q1024
Observed
Jul-23 @ 08:47 UTC
Wind
  • 310° at 13 KTS
Visibility
10,000+ meters
Flight Rules
VFR
Cloud Levels
  • Clear skies
Temperature
14°C / 57°F
Dewpoint
-3°C / 27°F
Humidity
31%
Altimeter
30.24" Hg
Pressure
1023.92 hPa
Previous

21 hours ago

FAEO 230750Z AUTO 28011KT //// // ////// 12/M01 Q1024
Observed
Jul-23 @ 07:50 UTC
Wind
  • 280° at 11 KTS
Visibility
Temperature
12°C / 54°F
Dewpoint
-1°C / 30°F
Humidity
41%
Altimeter
30.24" Hg
Pressure
1023.92 hPa
Previous

23 hours ago

FAEO 230548Z AUTO 30008KT //// // ////// 07/M01 Q1024
Observed
Jul-23 @ 05:48 UTC
Wind
  • 300° at 8 KTS
Visibility
Temperature
C / 45°F
Dewpoint
-1°C / 30°F
Humidity
57%
Altimeter
30.24" Hg
Pressure
1023.92 hPa